createdAt,value
2023-02-04T00:00:37.609Z,100.00
2023-02-04T00:03:06.790Z,100.00
2023-02-04T00:05:35.341Z,100.00
2023-02-04T00:08:06.489Z,100.00
2023-02-04T00:10:36.452Z,100.00
2023-02-04T00:13:05.353Z,100.00
2023-02-04T00:15:33.715Z,100.00
2023-02-04T00:18:02.081Z,100.00
2023-02-04T00:20:30.680Z,100.00
2023-02-04T00:22:59.284Z,100.00
2023-02-04T00:25:27.764Z,100.00
2023-02-04T00:27:57.475Z,100.00
2023-02-04T00:30:25.874Z,100.00
2023-02-04T00:32:55.115Z,100.00
2023-02-04T00:35:23.775Z,100.00
2023-02-04T00:37:52.657Z,100.00
2023-02-04T00:40:21.541Z,100.00
2023-02-04T00:42:49.878Z,100.00
2023-02-04T00:45:19.782Z,100.00
2023-02-04T00:47:48.162Z,100.00
2023-02-04T00:50:16.951Z,100.00
2023-02-04T00:52:45.364Z,100.00
2023-02-04T00:55:15.738Z,100.00
2023-02-04T00:57:44.164Z,100.00
2023-02-04T01:00:13.739Z,100.00
2023-02-04T01:02:43.501Z,100.00
2023-02-04T01:05:11.886Z,100.00
2023-02-04T01:07:40.262Z,100.00
2023-02-04T01:10:08.705Z,100.00
2023-02-04T01:12:37.314Z,100.00
2023-02-04T01:15:06.561Z,100.00
2023-02-04T01:17:35.022Z,100.00
2023-02-04T01:20:04.848Z,100.00
2023-02-04T01:22:33.167Z,100.00
2023-02-04T01:25:01.488Z,100.00
2023-02-04T01:27:29.880Z,100.00
2023-02-04T01:29:58.260Z,100.00
2023-02-04T01:32:26.620Z,100.00
2023-02-04T01:34:57.093Z,100.00
2023-02-04T01:37:26.803Z,100.00
2023-02-04T01:39:55.025Z,100.00
2023-02-04T01:42:23.412Z,100.00
2023-02-04T01:44:52.260Z,100.00
2023-02-04T01:47:21.248Z,100.00
2023-02-04T01:49:52.631Z,100.00
2023-02-04T01:52:21.447Z,100.00
2023-02-04T01:54:51.345Z,100.00
2023-02-04T01:57:19.867Z,100.00
2023-02-04T01:59:48.920Z,100.00
2023-02-04T02:02:42.775Z,100.00
2023-02-04T02:05:12.435Z,100.00
2023-02-04T02:07:40.829Z,100.00
2023-02-04T02:10:12.434Z,100.00
2023-02-04T02:12:40.828Z,100.00
2023-02-04T02:15:10.860Z,100.00
2023-02-04T02:17:39.784Z,100.00
2023-02-04T02:20:10.442Z,100.00
2023-02-04T02:22:40.138Z,100.00
2023-02-04T02:25:14.458Z,100.00
2023-02-04T02:27:43.179Z,100.00
2023-02-04T02:30:13.113Z,100.00
2023-02-04T02:32:41.805Z,100.00
2023-02-04T02:35:10.497Z,100.00
2023-02-04T02:37:38.871Z,100.00
2023-02-04T02:40:08.482Z,100.00
2023-02-04T02:42:38.469Z,100.00
2023-02-04T02:45:22.038Z,100.00
2023-02-04T02:47:50.900Z,100.00
2023-02-04T02:50:22.538Z,100.00
2023-02-04T02:52:50.881Z,100.00
2023-02-04T02:55:21.350Z,100.00
2023-02-04T02:57:51.885Z,100.00
2023-02-04T03:00:23.119Z,100.00
2023-02-04T03:02:56.434Z,100.00
2023-02-04T03:05:25.062Z,100.00
2023-02-04T03:07:53.629Z,100.00
2023-02-04T03:10:21.980Z,100.00
2023-02-04T03:12:51.854Z,100.00
2023-02-04T03:15:20.622Z,100.00
2023-02-04T03:17:49.298Z,100.00
2023-02-04T03:20:18.749Z,100.00
2023-02-04T03:22:47.067Z,100.00
2023-02-04T03:25:15.421Z,100.00
2023-02-04T03:27:43.811Z,100.00
2023-02-04T03:30:14.153Z,100.00
2023-02-04T03:32:42.750Z,100.00
2023-02-04T03:35:11.095Z,100.00
2023-02-04T03:37:39.454Z,100.00
2023-02-04T03:40:08.429Z,100.00
2023-02-04T03:42:36.765Z,100.00
2023-02-04T03:45:05.777Z,100.00
2023-02-04T03:47:35.516Z,100.00
2023-02-04T03:50:03.853Z,100.00
2023-02-04T03:52:32.236Z,100.00
2023-02-04T03:55:00.581Z,100.00
2023-02-04T03:57:28.937Z,100.00
2023-02-04T03:59:57.225Z,100.00
2023-02-04T04:02:25.641Z,100.00
2023-02-04T04:04:55.411Z,100.00
2023-02-04T04:07:23.810Z,100.00
2023-02-04T04:09:52.192Z,100.00
2023-02-04T04:12:20.629Z,100.00
2023-02-04T04:14:48.916Z,100.00
2023-02-04T04:17:17.698Z,100.00
2023-02-04T04:19:46.103Z,100.00
2023-02-04T04:22:15.826Z,100.00
2023-02-04T04:24:44.142Z,100.00
2023-02-04T04:27:12.492Z,100.00
2023-02-04T04:29:40.798Z,100.00
2023-02-04T04:32:09.796Z,100.00
2023-02-04T04:34:38.286Z,100.00
2023-02-04T04:37:06.788Z,100.00
2023-02-04T04:39:36.499Z,100.00
2023-02-04T04:42:05.102Z,100.00
2023-02-04T04:44:33.410Z,100.00
2023-02-04T04:47:01.856Z,100.00
2023-02-04T04:49:30.389Z,100.00
2023-02-04T04:51:58.808Z,100.00
2023-02-04T04:54:27.265Z,100.00
2023-02-04T04:56:57.090Z,100.00
2023-02-04T04:59:25.430Z,100.00
2023-02-04T05:01:53.826Z,100.00
2023-02-04T05:04:22.236Z,100.00
2023-02-04T05:06:50.645Z,100.00
2023-02-04T05:09:18.987Z,100.00
2023-02-04T05:11:47.924Z,100.00
2023-02-04T05:14:17.742Z,100.00
2023-02-04T05:16:46.061Z,100.00
2023-02-04T05:19:14.474Z,100.00
2023-02-04T05:21:42.802Z,100.00
2023-02-04T05:24:11.133Z,100.00
2023-02-04T05:26:39.429Z,100.00
2023-02-04T05:29:09.368Z,100.00
2023-02-04T05:31:40.213Z,100.00
2023-02-04T05:34:08.642Z,100.00
2023-02-04T05:36:37.028Z,100.00
2023-02-04T05:39:05.438Z,100.00
2023-02-04T05:41:33.850Z,100.00
2023-02-04T05:44:02.242Z,100.00
2023-02-04T05:46:30.676Z,100.00
2023-02-04T05:49:00.380Z,100.00
2023-02-04T05:51:28.843Z,100.00
2023-02-04T05:53:57.233Z,100.00
2023-02-04T05:56:26.400Z,100.00
2023-02-04T05:58:54.824Z,100.00
2023-02-04T06:01:23.237Z,100.00
2023-02-04T06:03:51.708Z,100.00
2023-02-04T06:06:21.498Z,100.00
2023-02-04T06:08:49.891Z,100.00
2023-02-04T06:11:18.225Z,100.00
2023-02-04T06:13:46.623Z,100.00
2023-02-04T06:16:15.096Z,100.00
2023-02-04T06:18:43.595Z,100.00
2023-02-04T06:21:11.915Z,100.00
2023-02-04T06:23:41.617Z,100.00
2023-02-04T06:26:10.102Z,100.00
2023-02-04T06:28:38.554Z,100.00
2023-02-04T06:31:09.173Z,100.00
2023-02-04T06:33:37.863Z,100.00
2023-02-04T06:36:06.433Z,100.00
2023-02-04T06:38:34.829Z,100.00
2023-02-04T06:41:04.527Z,100.00
2023-02-04T06:43:32.942Z,100.00
2023-02-04T06:46:01.387Z,100.00
2023-02-04T06:48:31.174Z,100.00
2023-02-04T06:50:59.731Z,100.00
2023-02-04T06:53:28.090Z,100.00
2023-02-04T06:55:56.453Z,100.00
2023-02-04T06:58:26.237Z,100.00
2023-02-04T07:00:54.632Z,100.00
2023-02-04T07:03:23.010Z,100.00
2023-02-04T07:05:53.127Z,100.00
2023-02-04T07:08:21.936Z,100.00
2023-02-04T07:10:50.326Z,100.00
2023-02-04T07:13:18.672Z,100.00
2023-02-04T07:15:48.491Z,100.00
2023-02-04T07:18:16.894Z,100.00
2023-02-04T07:20:45.228Z,100.00
2023-02-04T07:23:13.645Z,100.00
2023-02-04T07:25:42.110Z,100.00
2023-02-04T07:28:10.552Z,100.00
2023-02-04T07:30:39.078Z,100.00
2023-02-04T07:33:08.841Z,100.00
2023-02-04T07:35:38.039Z,100.00
2023-02-04T07:38:06.458Z,100.00
2023-02-04T07:40:35.224Z,100.00
2023-02-04T07:43:03.669Z,100.00
2023-02-04T07:45:32.076Z,100.00
2023-02-04T07:48:00.453Z,100.00
2023-02-04T07:50:30.566Z,100.00
2023-02-04T07:52:59.387Z,100.00
2023-02-04T07:55:27.829Z,100.00
2023-02-04T07:57:56.261Z,100.00
2023-02-04T08:00:25.137Z,100.00
2023-02-04T08:02:53.783Z,100.00
2023-02-04T08:05:22.164Z,100.00
2023-02-04T08:07:51.898Z,100.00
2023-02-04T08:10:21.513Z,100.00
2023-02-04T08:12:49.967Z,100.00
2023-02-04T08:15:18.368Z,100.00
2023-02-04T08:17:46.676Z,100.00
2023-02-04T08:20:15.038Z,100.00
2023-02-04T08:22:43.385Z,96.16
2023-02-04T08:25:13.681Z,100.00
2023-02-04T08:27:42.783Z,100.00
2023-02-04T08:30:12.258Z,92.17
2023-02-04T08:32:40.611Z,89.98
2023-02-04T08:35:09.694Z,100.00
2023-02-04T08:37:38.105Z,96.33
2023-02-04T08:40:07.280Z,91.52
2023-02-04T08:42:37.030Z,88.81
2023-02-04T08:45:05.816Z,91.22
2023-02-04T08:47:34.131Z,94.65
2023-02-04T08:50:02.475Z,96.13
2023-02-04T08:52:30.848Z,97.15
2023-02-04T08:54:59.112Z,98.90
2023-02-04T08:57:27.435Z,100.00
2023-02-04T08:59:57.170Z,100.00
2023-02-04T09:02:25.583Z,91.17
2023-02-04T09:04:54.040Z,97.56
2023-02-04T09:07:22.531Z,100.00
2023-02-04T09:09:50.838Z,100.00
2023-02-04T09:12:19.164Z,100.00
2023-02-04T09:14:47.513Z,100.00
2023-02-04T09:17:17.252Z,100.00
2023-02-04T09:19:45.586Z,98.23
2023-02-04T09:22:13.929Z,91.30
2023-02-04T09:24:42.379Z,100.00
2023-02-04T09:27:10.751Z,100.00
2023-02-04T09:29:39.235Z,100.00
2023-02-04T09:32:07.656Z,100.00
2023-02-04T09:34:37.393Z,100.00
2023-02-04T09:37:05.793Z,100.00
2023-02-04T09:39:34.170Z,100.00
2023-02-04T09:42:02.549Z,100.00
2023-02-04T09:44:31.105Z,100.00
2023-02-04T09:47:01.247Z,100.00
2023-02-04T09:49:29.914Z,100.00
2023-02-04T09:51:59.686Z,100.00
2023-02-04T09:54:28.073Z,95.78
2023-02-04T09:56:57.519Z,94.64
2023-02-04T09:59:28.678Z,93.79
2023-02-04T10:01:59.411Z,99.16
2023-02-04T10:04:28.043Z,100.00
2023-02-04T10:06:58.655Z,87.09
2023-02-04T10:09:28.221Z,90.79
2023-02-04T10:11:56.611Z,98.86
2023-02-04T10:14:25.181Z,83.98
2023-02-04T10:16:58.507Z,83.91
2023-02-04T10:19:28.475Z,77.28
2023-02-04T10:21:57.105Z,83.24
2023-02-04T10:24:28.329Z,77.61
2023-02-04T10:27:08.178Z,77.65
2023-02-04T10:29:36.492Z,72.39
2023-02-04T10:32:05.138Z,77.86
2023-02-04T10:34:37.874Z,78.46
2023-02-04T10:37:15.687Z,80.18
2023-02-04T10:39:45.553Z,79.48
2023-02-04T10:42:22.038Z,77.70
2023-02-04T10:44:50.502Z,83.56
2023-02-04T10:47:20.969Z,91.83
2023-02-04T10:49:56.645Z,88.74
2023-02-04T10:52:27.961Z,90.64
2023-02-04T10:54:58.323Z,83.21
2023-02-04T10:57:28.610Z,80.61
2023-02-04T10:59:59.471Z,89.44
2023-02-04T11:02:43.434Z,90.72
2023-02-04T11:05:15.718Z,95.89
2023-02-04T11:07:44.198Z,99.14
2023-02-04T11:10:16.913Z,99.02
2023-02-04T11:12:47.671Z,93.08
2023-02-04T11:15:38.937Z,98.06
2023-02-04T11:18:08.999Z,94.64
2023-02-04T11:20:39.919Z,89.55
2023-02-04T11:23:29.881Z,85.01
2023-02-04T11:26:07.649Z,85.96
2023-02-04T11:28:57.522Z,82.64
2023-02-04T11:31:43.974Z,80.89
2023-02-04T11:34:26.689Z,71.73
2023-02-04T11:37:12.259Z,67.97
2023-02-04T11:39:42.410Z,70.90
2023-02-04T11:42:34.206Z,69.03
2023-02-04T11:45:04.351Z,68.96
2023-02-04T11:47:36.915Z,63.72
2023-02-04T11:50:13.334Z,63.12
2023-02-04T11:52:42.380Z,63.77
2023-02-04T11:55:12.123Z,65.33
2023-02-04T11:57:42.609Z,65.97
2023-02-04T12:00:15.606Z,58.09
2023-02-04T12:02:46.418Z,55.06
2023-02-04T12:05:16.152Z,57.70
2023-02-04T12:07:45.125Z,57.42
2023-02-04T12:10:15.768Z,58.08
2023-02-04T12:12:46.170Z,58.50
2023-02-04T12:15:19.054Z,56.27
2023-02-04T12:17:47.864Z,55.55
2023-02-04T12:20:16.422Z,57.14
2023-02-04T12:22:44.852Z,54.80
2023-02-04T12:25:16.833Z,53.47
2023-02-04T12:27:46.703Z,53.51
2023-02-04T12:30:15.459Z,54.34
2023-02-04T12:32:43.819Z,51.99
2023-02-04T12:35:12.229Z,55.08
2023-02-04T12:37:40.550Z,52.46
2023-02-04T12:40:09.962Z,52.78
2023-02-04T12:42:38.297Z,52.69
2023-02-04T12:45:08.877Z,50.79
2023-02-04T12:47:36.997Z,52.62
2023-02-04T12:50:05.699Z,50.89
2023-02-04T12:52:34.244Z,48.99
2023-02-04T12:55:04.789Z,49.30
2023-02-04T12:57:33.267Z,50.50
2023-02-04T13:00:01.812Z,48.05
2023-02-04T13:02:31.559Z,49.30
2023-02-04T13:04:59.990Z,50.70
2023-02-04T13:07:28.330Z,49.97
2023-02-04T13:09:57.437Z,48.90
2023-02-04T13:12:25.914Z,48.05
2023-02-04T13:14:54.283Z,48.09
2023-02-04T13:17:22.761Z,47.10
2023-02-04T13:19:52.494Z,47.02
2023-02-04T13:22:21.226Z,45.44
2023-02-04T13:24:49.643Z,45.45
2023-02-04T13:27:18.045Z,46.19
2023-02-04T13:29:46.369Z,46.56
2023-02-04T13:32:14.732Z,46.80
2023-02-04T13:34:43.299Z,47.06
2023-02-04T13:37:13.000Z,46.98
2023-02-04T13:39:41.337Z,46.69
2023-02-04T13:42:09.708Z,47.03
2023-02-04T13:44:38.052Z,47.66
2023-02-04T13:47:06.510Z,48.21
2023-02-04T13:49:34.849Z,47.78
2023-02-04T13:52:03.212Z,48.67
2023-02-04T13:54:32.994Z,48.73
2023-02-04T13:57:01.383Z,48.02
2023-02-04T13:59:29.734Z,50.52
2023-02-04T14:01:58.052Z,49.94
2023-02-04T14:04:27.174Z,49.76
2023-02-04T14:06:56.418Z,49.79
2023-02-04T14:09:25.478Z,48.49
2023-02-04T14:11:55.177Z,49.23
2023-02-04T14:14:23.512Z,48.54
2023-02-04T14:16:52.049Z,47.17
2023-02-04T14:19:20.395Z,46.17
2023-02-04T14:21:50.257Z,44.86
2023-02-04T14:24:18.618Z,46.95
2023-02-04T14:26:46.964Z,48.36
2023-02-04T14:29:16.743Z,48.99
2023-02-04T14:31:45.104Z,48.32
2023-02-04T14:34:13.550Z,47.85
2023-02-04T14:36:41.989Z,47.65
2023-02-04T14:39:10.315Z,48.67
2023-02-04T14:41:38.677Z,47.49
2023-02-04T14:44:07.061Z,45.18
2023-02-04T14:46:36.892Z,44.53
2023-02-04T14:49:05.227Z,45.67
2023-02-04T14:51:33.562Z,45.24
2023-02-04T14:54:02.777Z,46.88
2023-02-04T14:56:31.137Z,46.55
2023-02-04T14:58:59.455Z,47.80
2023-02-04T15:01:27.996Z,47.24
2023-02-04T15:03:58.317Z,47.62
2023-02-04T15:06:26.910Z,46.58
2023-02-04T15:08:55.539Z,46.11
2023-02-04T15:11:23.937Z,46.42
2023-02-04T15:13:52.242Z,48.82
2023-02-04T15:16:20.607Z,47.27
2023-02-04T15:18:49.117Z,47.62
2023-02-04T15:21:18.885Z,48.08
2023-02-04T15:23:47.683Z,49.43
2023-02-04T15:26:16.438Z,48.56
2023-02-04T15:28:44.782Z,50.50
2023-02-04T15:31:13.353Z,50.78
2023-02-04T15:33:41.778Z,51.10
2023-02-04T15:36:10.346Z,51.37
2023-02-04T15:38:40.048Z,51.93
2023-02-04T15:41:08.419Z,51.84
2023-02-04T15:43:36.764Z,51.27
2023-02-04T15:46:05.381Z,51.86
2023-02-04T15:48:33.729Z,51.24
2023-02-04T15:51:02.037Z,49.90
2023-02-04T15:53:30.507Z,51.29
2023-02-04T15:56:00.211Z,50.67
2023-02-04T15:58:28.570Z,53.02
2023-02-04T16:00:57.466Z,52.58
2023-02-04T16:03:26.691Z,52.21
2023-02-04T16:05:55.609Z,52.05
2023-02-04T16:08:23.998Z,51.54
2023-02-04T16:10:54.079Z,50.76
2023-02-04T16:13:23.895Z,50.94
2023-02-04T16:15:52.224Z,50.20
2023-02-04T16:18:20.710Z,49.92
2023-02-04T16:20:49.094Z,49.87
2023-02-04T16:23:17.460Z,50.90
2023-02-04T16:25:45.823Z,49.51
2023-02-04T16:28:14.220Z,48.71
2023-02-04T16:30:44.044Z,48.53
2023-02-04T16:33:12.436Z,49.04
2023-02-04T16:35:59.846Z,49.26
2023-02-04T16:38:28.621Z,50.34
2023-02-04T16:40:57.003Z,51.22
2023-02-04T16:43:25.654Z,51.75
2023-02-04T16:45:55.809Z,48.54
2023-02-04T16:48:24.223Z,48.53
2023-02-04T16:50:52.587Z,48.40
2023-02-04T16:53:20.952Z,48.53
2023-02-04T16:55:49.382Z,48.32
2023-02-04T16:58:18.779Z,48.04
2023-02-04T17:00:47.169Z,47.67
2023-02-04T17:03:17.230Z,47.14
2023-02-04T17:05:45.669Z,46.77
2023-02-04T17:08:15.162Z,46.74
2023-02-04T17:11:00.444Z,48.38
2023-02-04T17:13:28.929Z,47.28
2023-02-04T17:16:01.055Z,47.03
2023-02-04T17:18:32.153Z,48.54
2023-02-04T17:21:01.145Z,47.73
2023-02-04T17:23:29.786Z,49.93
2023-02-04T17:25:58.177Z,48.75
2023-02-04T17:28:26.634Z,47.32
2023-02-04T17:30:55.018Z,47.05
2023-02-04T17:33:23.435Z,48.23
2023-02-04T17:35:53.184Z,48.91
2023-02-04T17:38:22.004Z,49.00
2023-02-04T17:40:50.622Z,49.48
2023-02-04T17:43:19.171Z,49.27
2023-02-04T17:45:47.550Z,49.08
2023-02-04T17:48:16.204Z,48.61
2023-02-04T17:50:44.639Z,48.34
2023-02-04T17:53:14.373Z,49.28
2023-02-04T17:55:42.749Z,48.87
2023-02-04T17:58:15.862Z,49.37
2023-02-04T18:00:45.940Z,47.75
2023-02-04T18:03:15.637Z,47.23
2023-02-04T18:05:46.801Z,47.60
2023-02-04T18:08:18.175Z,47.02
2023-02-04T18:10:47.689Z,49.76
2023-02-04T18:13:17.714Z,50.60
2023-02-04T18:15:47.890Z,51.82
2023-02-04T18:18:20.842Z,50.04
2023-02-04T18:20:55.093Z,48.50
2023-02-04T18:23:24.922Z,47.81
2023-02-04T18:25:53.236Z,48.68
2023-02-04T18:28:22.875Z,48.86
2023-02-04T18:30:53.109Z,49.38
2023-02-04T18:33:23.994Z,50.72
2023-02-04T18:35:53.734Z,51.77
2023-02-04T18:38:25.923Z,54.22
2023-02-04T18:41:00.767Z,53.33
2023-02-04T18:43:30.661Z,56.79
2023-02-04T18:46:02.415Z,58.25
2023-02-04T18:48:54.748Z,61.17
2023-02-04T18:51:27.393Z,64.20
2023-02-04T18:54:00.647Z,64.70
2023-02-04T18:56:35.142Z,72.28
2023-02-04T18:59:03.798Z,65.45
2023-02-04T19:01:35.575Z,60.31
2023-02-04T19:04:07.067Z,57.77
2023-02-04T19:06:39.909Z,58.68
2023-02-04T19:09:17.663Z,68.62
2023-02-04T19:11:48.247Z,68.09
2023-02-04T19:14:18.877Z,63.85
2023-02-04T19:16:48.054Z,62.71
2023-02-04T19:19:44.829Z,59.96
2023-02-04T19:22:19.682Z,58.73
2023-02-04T19:24:52.113Z,60.97
2023-02-04T19:27:32.925Z,60.15
2023-02-04T19:30:02.367Z,58.76
2023-02-04T19:32:33.993Z,59.41
2023-02-04T19:35:16.305Z,59.69
2023-02-04T19:37:45.923Z,58.66
2023-02-04T19:40:26.866Z,58.48
2023-02-04T19:42:56.212Z,58.22
2023-02-04T19:45:26.434Z,59.45
2023-02-04T19:47:56.162Z,58.41
2023-02-04T19:50:27.289Z,60.16
2023-02-04T19:53:01.676Z,60.77
2023-02-04T19:55:36.884Z,61.21
2023-02-04T19:58:16.694Z,61.73
2023-02-04T20:01:01.657Z,64.28
2023-02-04T20:03:35.841Z,63.58
2023-02-04T20:06:27.593Z,63.06
2023-02-04T20:08:56.826Z,62.87
2023-02-04T20:12:00.016Z,62.96
2023-02-04T20:14:49.326Z,64.04
2023-02-04T20:17:37.415Z,64.32
2023-02-04T20:20:20.811Z,63.52
2023-02-04T20:22:51.278Z,64.88
2023-02-04T20:25:45.089Z,66.92
2023-02-04T20:28:37.307Z,67.00
2023-02-04T20:31:18.791Z,66.57
2023-02-04T20:33:49.814Z,71.19
2023-02-04T20:36:36.169Z,71.71
2023-02-04T20:39:30.881Z,74.28
2023-02-04T20:42:36.715Z,76.88
2023-02-04T20:45:33.979Z,77.89
2023-02-04T20:48:27.062Z,79.30
2023-02-04T20:50:56.629Z,77.65
2023-02-04T20:53:26.879Z,80.13
2023-02-04T20:56:03.704Z,81.42
2023-02-04T20:58:35.868Z,78.67
2023-02-04T21:01:18.711Z,80.90
2023-02-04T21:03:47.047Z,73.40
2023-02-04T21:06:23.015Z,71.24
2023-02-04T21:08:52.866Z,68.63
2023-02-04T21:11:22.898Z,67.94
2023-02-04T21:13:52.313Z,67.08
2023-02-04T21:16:22.276Z,66.40
2023-02-04T21:18:50.824Z,65.28
2023-02-04T21:21:20.369Z,66.24
2023-02-04T21:23:48.757Z,66.08
2023-02-04T21:26:17.060Z,66.83
2023-02-04T21:28:45.597Z,67.69
2023-02-04T21:31:14.058Z,67.50
2023-02-04T21:33:43.965Z,65.76
2023-02-04T21:36:12.286Z,64.68
2023-02-04T21:38:40.783Z,64.91
2023-02-04T21:41:09.202Z,66.05
2023-02-04T21:43:37.525Z,67.11
2023-02-04T21:46:06.234Z,68.83
2023-02-04T21:48:34.575Z,68.89
2023-02-04T21:51:04.467Z,69.30
2023-02-04T21:53:32.867Z,68.58
2023-02-04T21:56:01.239Z,68.00
2023-02-04T21:58:29.656Z,65.21
2023-02-04T22:00:58.075Z,62.45
2023-02-04T22:03:26.600Z,62.38
2023-02-04T22:05:54.963Z,63.64
2023-02-04T22:08:24.713Z,68.30
2023-02-04T22:10:53.067Z,75.22
2023-02-04T22:13:21.368Z,79.31
2023-02-04T22:15:49.726Z,79.41
2023-02-04T22:18:18.091Z,76.85
2023-02-04T22:20:46.439Z,75.06
2023-02-04T22:23:16.608Z,74.97
2023-02-04T22:25:46.332Z,76.11
2023-02-04T22:28:14.753Z,82.00
2023-02-04T22:30:43.148Z,82.52
2023-02-04T22:33:14.078Z,82.08
2023-02-04T22:35:42.469Z,78.22
2023-02-04T22:38:10.807Z,73.09
2023-02-04T22:40:39.185Z,68.95
2023-02-04T22:43:08.868Z,66.26
2023-02-04T22:45:37.202Z,71.13
2023-02-04T22:48:05.593Z,77.67
2023-02-04T22:50:34.104Z,83.32
2023-02-04T22:53:02.402Z,80.14
2023-02-04T22:55:30.771Z,83.02
2023-02-04T22:57:59.154Z,84.76
2023-02-04T23:00:28.908Z,75.19
2023-02-04T23:02:57.252Z,69.99
2023-02-04T23:05:25.659Z,71.52
2023-02-04T23:07:53.952Z,70.73
2023-02-04T23:10:22.352Z,68.33
2023-02-04T23:12:50.662Z,67.15
2023-02-04T23:15:19.330Z,67.83
2023-02-04T23:17:49.064Z,69.62
2023-02-04T23:20:17.902Z,82.32
2023-02-04T23:22:46.209Z,82.60
2023-02-04T23:25:14.540Z,77.96
2023-02-04T23:27:42.964Z,88.22
2023-02-04T23:30:12.409Z,96.30
2023-02-04T23:32:40.720Z,87.35
2023-02-04T23:35:10.528Z,82.59
2023-02-04T23:37:38.853Z,84.87
2023-02-04T23:40:08.008Z,88.78
2023-02-04T23:42:36.377Z,84.55
2023-02-04T23:45:05.146Z,87.39
2023-02-04T23:47:33.600Z,86.95
2023-02-04T23:50:01.924Z,82.35
2023-02-04T23:52:31.633Z,79.25
2023-02-04T23:55:01.321Z,82.52
2023-02-04T23:57:30.554Z,89.97
2023-02-04T23:59:58.861Z,86.23
